createdAt,value
2019-06-07T00:01:44.388Z,159.18
2019-06-07T00:04:12.040Z,183.03
2019-06-07T00:06:38.460Z,162.15
2019-06-07T00:09:08.147Z,163.10
2019-06-07T00:11:33.821Z,192.20
2019-06-07T00:13:59.892Z,178.15
2019-06-07T00:16:25.978Z,182.20
2019-06-07T00:18:52.053Z,174.53
2019-06-07T00:21:20.463Z,168.80
2019-06-07T00:23:46.128Z,159.30
2019-06-07T00:26:13.322Z,173.35
2019-06-07T00:28:40.299Z,171.20
2019-06-07T00:31:06.372Z,156.00
2019-06-07T00:33:32.517Z,155.63
2019-06-07T00:35:58.711Z,153.38
2019-06-07T00:38:24.864Z,146.55
2019-06-07T00:40:50.954Z,154.15
2019-06-07T00:43:20.384Z,153.93
2019-06-07T00:45:45.454Z,146.40
2019-06-07T00:48:19.670Z,146.22
2019-06-07T00:50:39.764Z,145.30
2019-06-07T00:53:29.824Z,142.98
2019-06-07T00:55:33.824Z,142.25
2019-06-07T00:58:00.013Z,136.32
2019-06-07T01:00:26.283Z,163.60
2019-06-07T01:02:52.476Z,143.15
2019-06-07T01:05:22.584Z,145.72
2019-06-07T01:07:46.659Z,147.90
2019-06-07T01:10:17.365Z,142.10
2019-06-07T01:12:42.944Z,143.02
2019-06-07T01:15:09.721Z,134.47
2019-06-07T01:17:50.084Z,137.22
2019-06-07T01:20:08.371Z,141.07
2019-06-07T01:22:34.435Z,142.20
2019-06-07T01:25:00.531Z,134.45
2019-06-07T01:27:26.604Z,140.90
2019-06-07T01:29:52.709Z,133.87
2019-06-07T01:32:20.659Z,135.18
2019-06-07T01:34:46.865Z,141.88
2019-06-07T01:37:12.946Z,136.18
2019-06-07T01:39:39.029Z,132.75
2019-06-07T01:42:05.224Z,140.73
2019-06-07T01:44:31.590Z,133.05
2019-06-07T01:46:57.760Z,130.32
2019-06-07T01:49:26.627Z,133.57
2019-06-07T01:51:51.828Z,133.35
2019-06-07T01:56:45.884Z,130.63
2019-06-07T01:59:12.155Z,138.07
2019-06-07T02:01:38.239Z,135.03
2019-06-07T02:04:04.329Z,135.03
2019-06-07T02:06:32.202Z,138.00
2019-06-07T02:08:58.488Z,131.87
2019-06-07T02:11:26.621Z,135.55
2019-06-07T02:13:52.551Z,193.85
2019-06-07T02:16:19.357Z,134.10
2019-06-07T02:19:01.213Z,134.00
2019-06-07T02:21:13.653Z,132.67
2019-06-07T02:23:39.756Z,131.63
2019-06-07T02:26:05.975Z,134.67
2019-06-07T02:28:44.702Z,134.35
2019-06-07T02:31:00.813Z,137.62
2019-06-07T02:33:31.135Z,134.97
2019-06-07T02:35:55.112Z,139.52
2019-06-07T02:38:23.148Z,134.63
2019-06-07T02:40:49.209Z,135.78
2019-06-07T02:43:15.275Z,130.63
2019-06-07T02:45:43.306Z,134.15
2019-06-07T02:48:09.346Z,129.27
2019-06-07T02:50:38.297Z,134.25
2019-06-07T02:53:03.417Z,130.72
2019-06-07T02:55:33.756Z,132.25
2019-06-07T02:57:57.480Z,127.10
2019-06-07T03:01:09.053Z,124.00
2019-06-07T03:03:16.204Z,136.40
2019-06-07T03:05:43.061Z,128.45
2019-06-07T03:08:11.358Z,124.67
2019-06-07T03:10:41.839Z,130.70
2019-06-07T03:13:10.240Z,144.00
2019-06-07T03:15:45.763Z,132.20
2019-06-07T03:18:06.528Z,125.60
2019-06-07T03:20:35.105Z,134.18
2019-06-07T03:23:05.413Z,126.30
2019-06-07T03:25:37.380Z,130.22
2019-06-07T03:28:05.233Z,125.82
2019-06-07T03:30:57.066Z,138.12
2019-06-07T03:32:59.380Z,131.40
2019-06-07T03:35:27.728Z,127.20
2019-06-07T03:37:53.560Z,144.87
2019-06-07T03:40:19.740Z,146.02
2019-06-07T03:42:45.822Z,127.78
2019-06-07T03:45:11.904Z,132.97
2019-06-07T03:47:41.834Z,125.20
2019-06-07T03:50:06.379Z,129.00
2019-06-07T03:52:35.636Z,128.05
2019-06-07T03:55:00.431Z,149.87
2019-06-07T03:57:28.726Z,152.15
2019-06-07T03:59:54.671Z,138.22
2019-06-07T04:02:20.747Z,139.37
2019-06-07T04:04:46.821Z,132.63
2019-06-07T04:07:12.901Z,142.18
2019-06-07T04:09:42.490Z,162.57
2019-06-07T04:12:06.947Z,151.32
2019-06-07T04:14:35.011Z,152.38
2019-06-07T04:17:00.980Z,140.95
2019-06-07T04:19:28.739Z,136.75
2019-06-07T04:21:55.037Z,133.65
2019-06-07T04:24:21.120Z,137.43
2019-06-07T04:26:47.183Z,141.03
2019-06-07T04:31:42.844Z,145.10
2019-06-07T04:34:09.246Z,143.68
2019-06-07T04:36:45.683Z,142.50
2019-06-07T04:39:05.848Z,142.93
2019-06-07T04:41:33.615Z,137.92
2019-06-07T04:44:00.741Z,171.98
2019-06-07T04:46:31.405Z,145.40
2019-06-07T04:49:01.222Z,150.12
2019-06-07T04:51:30.188Z,149.47
2019-06-07T04:53:56.476Z,143.28
2019-06-07T04:56:22.564Z,161.05
2019-06-07T04:58:48.636Z,204.72
2019-06-07T05:01:26.827Z,163.77
2019-06-07T05:03:44.233Z,169.00
2019-06-07T05:06:10.684Z,161.92
2019-06-07T05:08:40.584Z,148.87
2019-06-07T05:11:04.759Z,172.53
2019-06-07T05:13:35.240Z,174.85
2019-06-07T05:15:58.917Z,166.60
2019-06-07T05:18:25.007Z,165.45
2019-06-07T05:20:51.106Z,167.87
2019-06-07T05:23:59.854Z,161.32
2019-06-07T05:25:45.172Z,163.80
2019-06-07T05:28:11.246Z,148.93
2019-06-07T05:33:08.317Z,157.35
2019-06-07T05:35:35.671Z,158.25
2019-06-07T05:38:03.110Z,166.00
2019-06-07T05:40:46.110Z,154.25
2019-06-07T05:43:25.453Z,154.32
2019-06-07T05:45:51.646Z,153.42
2019-06-07T05:48:17.812Z,194.55
2019-06-07T05:50:55.414Z,155.75
2019-06-07T05:53:11.894Z,167.57
2019-06-07T05:55:41.628Z,170.68
2019-06-07T05:58:06.120Z,164.15
2019-06-07T06:00:34.776Z,166.45
2019-06-07T06:03:05.843Z,177.60
2019-06-07T06:05:34.317Z,181.02
2019-06-07T06:07:56.171Z,196.98
2019-06-07T06:10:22.236Z,199.60
2019-06-07T06:12:51.862Z,192.47
2019-06-07T06:15:16.403Z,208.80
2019-06-07T06:17:46.060Z,198.43
2019-06-07T06:20:10.993Z,198.97
2019-06-07T06:22:38.076Z,197.68
2019-06-07T06:30:06.293Z,205.27
2019-06-07T06:32:43.066Z,219.75
2019-06-07T06:35:00.329Z,211.68
2019-06-07T06:37:26.383Z,235.10
2019-06-07T06:39:52.450Z,237.57
2019-06-07T06:42:18.626Z,230.65
2019-06-07T06:44:47.129Z,221.95
2019-06-07T06:47:12.694Z,222.55
2019-06-07T06:49:40.394Z,229.35
2019-06-07T06:52:07.501Z,252.47
2019-06-07T06:54:40.937Z,243.85
2019-06-07T06:57:19.143Z,249.82
2019-06-07T06:59:39.421Z,260.13
2019-06-07T07:01:57.536Z,258.23
2019-06-07T07:04:23.811Z,255.65
2019-06-07T07:06:50.742Z,265.02
2019-06-07T07:09:19.573Z,279.30
2019-06-07T07:12:00.755Z,274.98
2019-06-07T07:14:13.693Z,255.85
2019-06-07T07:16:39.842Z,279.87
2019-06-07T07:19:05.916Z,260.88
2019-06-07T07:21:32.088Z,276.90
2019-06-07T07:24:21.714Z,300.98
2019-06-07T07:26:26.151Z,304.95
2019-06-07T07:28:57.259Z,325.90
2019-06-07T07:31:21.172Z,274.25
2019-06-07T07:36:37.649Z,280.40
2019-06-07T07:38:45.620Z,285.82
2019-06-07T07:41:15.658Z,280.62
2019-06-07T07:43:39.232Z,312.35
2019-06-07T07:46:28.065Z,310.77
2019-06-07T07:48:33.436Z,313.70
2019-06-07T07:51:01.223Z,308.57
2019-06-07T07:53:46.811Z,321.50
2019-06-07T07:56:00.157Z,325.57
2019-06-07T07:58:23.485Z,307.27
2019-06-07T08:00:54.876Z,329.73
2019-06-07T08:03:17.552Z,346.77
2019-06-07T08:05:45.649Z,346.37
2019-06-07T08:08:11.747Z,349.60
2019-06-07T08:10:37.825Z,342.30
2019-06-07T08:13:23.428Z,362.57
2019-06-07T08:15:32.374Z,348.57
2019-06-07T08:18:03.881Z,339.25
2019-06-07T08:20:26.475Z,352.18
2019-06-07T08:22:53.258Z,376.50
2019-06-07T08:25:20.643Z,385.70
2019-06-07T08:27:47.069Z,364.50
2019-06-07T08:30:47.025Z,366.25
2019-06-07T08:32:42.706Z,377.48
2019-06-07T08:35:09.388Z,368.17
2019-06-07T08:38:14.177Z,376.80
2019-06-07T08:40:05.927Z,382.95
2019-06-07T08:42:38.263Z,375.18
2019-06-07T08:45:04.500Z,369.27
2019-06-07T08:47:28.053Z,413.87
2019-06-07T08:49:59.609Z,420.42
2019-06-07T08:52:22.138Z,397.40
2019-06-07T08:54:48.316Z,416.50
2019-06-07T08:57:21.234Z,435.32
2019-06-07T08:59:42.593Z,411.10
2019-06-07T09:02:22.927Z,391.73
2019-06-07T09:04:36.719Z,388.85
2019-06-07T09:07:15.213Z,399.20
2019-06-07T09:09:31.216Z,398.90
2019-06-07T09:12:03.113Z,418.82
2019-06-07T09:14:25.448Z,431.55
2019-06-07T09:16:51.506Z,413.90
2019-06-07T09:19:17.564Z,450.57
2019-06-07T09:21:43.644Z,456.02
2019-06-07T09:24:11.668Z,447.30
2019-06-07T09:26:37.695Z,461.12
2019-06-07T09:29:08.372Z,496.07
2019-06-07T09:31:51.079Z,448.90
2019-06-07T09:34:04.664Z,442.57
2019-06-07T09:36:27.807Z,460.23
2019-06-07T09:38:53.988Z,464.10
2019-06-07T09:41:20.051Z,458.98
2019-06-07T09:44:01.929Z,484.05
2019-06-07T09:46:16.260Z,484.90
2019-06-07T09:51:19.118Z,471.55
2019-06-07T09:53:38.444Z,486.75
2019-06-07T09:56:08.668Z,514.90
2019-06-07T09:58:51.757Z,521.10
2019-06-07T10:01:05.888Z,498.88
2019-06-07T10:03:28.448Z,518.60
2019-06-07T10:05:54.555Z,529.95
2019-06-07T10:09:31.614Z,527.08
2019-06-07T10:10:48.706Z,535.60
2019-06-07T10:13:14.847Z,514.87
2019-06-07T10:15:40.909Z,543.33
2019-06-07T10:18:07.157Z,554.80
2019-06-07T10:20:33.263Z,569.00
2019-06-07T10:22:59.637Z,551.50
2019-06-07T10:25:25.807Z,570.77
2019-06-07T10:27:51.875Z,569.45
2019-06-07T10:30:18.479Z,618.97
2019-06-07T10:32:44.623Z,557.75
2019-06-07T10:35:15.370Z,557.73
2019-06-07T10:37:38.867Z,549.65
2019-06-07T10:40:09.324Z,559.33
2019-06-07T10:42:35.533Z,538.80
2019-06-07T10:45:03.024Z,590.92
2019-06-07T10:47:29.938Z,578.10
2019-06-07T10:49:56.013Z,590.80
2019-06-07T10:52:22.080Z,573.45
2019-06-07T10:54:48.165Z,598.08
2019-06-07T10:57:16.042Z,645.73
2019-06-07T10:59:42.233Z,658.17
2019-06-07T11:02:09.646Z,586.33
2019-06-07T11:04:36.056Z,605.60
2019-06-07T11:07:02.307Z,640.42
2019-06-07T11:09:29.312Z,651.60
2019-06-07T11:11:55.375Z,627.23
2019-06-07T11:14:21.451Z,619.85
2019-06-07T11:16:47.536Z,610.83
2019-06-07T11:19:17.282Z,666.92
2019-06-07T11:21:41.667Z,650.53
2019-06-07T11:24:08.066Z,600.58
2019-06-07T11:26:34.311Z,589.73
2019-06-07T11:29:00.419Z,634.37
2019-06-07T11:31:26.487Z,600.30
2019-06-07T11:33:52.668Z,594.88
2019-06-07T11:36:18.967Z,613.08
2019-06-07T11:38:45.075Z,626.48
2019-06-07T11:41:11.597Z,637.77
2019-06-07T11:43:37.845Z,626.42
2019-06-07T11:46:04.035Z,641.30
2019-06-07T11:48:30.111Z,641.83
2019-06-07T11:50:56.173Z,611.73
2019-06-07T11:53:22.277Z,601.98
2019-06-07T11:55:48.382Z,606.78
2019-06-07T11:58:19.006Z,631.92
2019-06-07T12:00:42.503Z,638.98
2019-06-07T12:03:09.468Z,646.37
2019-06-07T12:05:35.756Z,642.72
2019-06-07T12:08:01.919Z,632.02
2019-06-07T12:10:41.813Z,654.50
2019-06-07T12:12:55.999Z,696.45
2019-06-07T12:15:22.093Z,661.85
2019-06-07T12:17:48.163Z,673.97
2019-06-07T12:20:16.739Z,677.42
2019-06-07T12:22:42.912Z,672.42
2019-06-07T12:25:10.425Z,704.70
2019-06-07T12:27:36.784Z,669.67
2019-06-07T12:30:11.177Z,691.62
2019-06-07T12:32:34.680Z,761.17
2019-06-07T12:35:00.777Z,804.00
2019-06-07T12:37:42.644Z,851.93
2019-06-07T12:39:54.912Z,895.93
2019-06-07T12:42:21.010Z,931.47
2019-06-07T12:44:47.076Z,964.73
2019-06-07T12:47:13.199Z,992.70
2019-06-07T12:49:39.267Z,999.90
2019-06-07T12:52:05.423Z,999.90
2019-06-07T12:54:32.008Z,999.90
2019-06-07T12:56:58.172Z,999.90
2019-06-07T12:59:24.402Z,999.90
2019-06-07T13:01:50.518Z,999.90
2019-06-07T13:04:16.588Z,999.90
2019-06-07T13:06:42.663Z,999.90
2019-06-07T13:09:08.729Z,999.90
2019-06-07T13:11:34.799Z,999.90
2019-06-07T13:14:00.868Z,999.90
2019-06-07T13:16:28.335Z,999.90
2019-06-07T13:18:54.637Z,999.90
2019-06-07T13:21:20.695Z,999.90
2019-06-07T13:23:46.776Z,999.90
2019-06-07T13:26:12.836Z,999.90
2019-06-07T13:28:38.904Z,999.90
2019-06-07T13:31:04.970Z,999.90
2019-06-07T13:33:37.364Z,999.90
2019-06-07T13:35:59.028Z,999.90
2019-06-07T13:38:25.794Z,999.90
2019-06-07T13:40:53.424Z,999.90
2019-06-07T13:43:19.484Z,999.90
2019-06-07T13:45:45.563Z,999.90
2019-06-07T13:48:11.642Z,999.90
2019-06-07T13:50:37.792Z,999.90
2019-06-07T13:53:03.870Z,999.90
2019-06-07T13:55:29.938Z,999.90
2019-06-07T13:57:56.029Z,999.90
2019-06-07T14:00:24.884Z,999.90
2019-06-07T14:02:51.055Z,999.90
2019-06-07T14:05:18.636Z,999.90
2019-06-07T14:07:44.911Z,999.90
2019-06-07T14:10:13.097Z,999.90
2019-06-07T14:12:39.156Z,999.90
2019-06-07T14:15:05.836Z,999.90
2019-06-07T14:17:32.589Z,999.90
2019-06-07T14:19:58.792Z,999.90
2019-06-07T14:22:24.853Z,999.90
2019-06-07T14:24:51.048Z,999.90
2019-06-07T14:27:17.222Z,999.90
2019-06-07T14:29:43.280Z,999.90
2019-06-07T14:32:09.365Z,999.90
2019-06-07T14:34:35.720Z,999.90
2019-06-07T14:37:01.879Z,999.90
2019-06-07T14:39:29.595Z,999.90
2019-06-07T14:42:08.494Z,999.90
2019-06-07T14:44:26.095Z,999.90
2019-06-07T14:46:51.983Z,999.90
2019-06-07T14:49:18.052Z,999.90
2019-06-07T14:51:44.121Z,999.90
2019-06-07T14:54:10.221Z,999.90
2019-06-07T14:56:36.291Z,999.90
2019-06-07T14:59:02.355Z,999.90
2019-06-07T15:01:28.614Z,999.90
2019-06-07T15:03:54.705Z,999.90
2019-06-07T15:06:20.853Z,999.90
2019-06-07T15:08:46.995Z,999.90
2019-06-07T15:11:13.078Z,999.90
2019-06-07T15:13:39.893Z,999.90
2019-06-07T15:16:06.217Z,999.90
2019-06-07T15:18:33.754Z,999.90
2019-06-07T15:20:59.944Z,999.90
2019-06-07T15:23:27.052Z,999.90
2019-06-07T15:25:53.317Z,999.90
2019-06-07T15:28:19.408Z,999.90
2019-06-07T15:30:45.497Z,999.90
2019-06-07T15:33:11.624Z,999.90
2019-06-07T15:35:39.032Z,999.90
2019-06-07T15:38:05.382Z,999.90
2019-06-07T15:40:33.087Z,999.90
2019-06-07T15:42:59.349Z,999.90
2019-06-07T15:45:25.412Z,999.90
2019-06-07T15:47:51.491Z,999.90
2019-06-07T15:50:17.948Z,999.90
2019-06-07T15:52:44.020Z,999.90
2019-06-07T15:55:10.798Z,999.90
2019-06-07T15:57:37.345Z,999.90
2019-06-07T16:00:10.132Z,999.90
2019-06-07T16:02:37.491Z,999.90
2019-06-07T16:05:04.559Z,999.90
2019-06-07T16:07:31.930Z,999.90
2019-06-07T16:09:58.205Z,999.90
2019-06-07T16:12:24.314Z,999.90
2019-06-07T16:14:50.467Z,999.90
2019-06-07T16:17:16.540Z,999.90
2019-06-07T16:19:46.224Z,999.90
2019-06-07T16:22:10.715Z,999.90
2019-06-07T16:24:37.677Z,999.90
2019-06-07T16:27:03.953Z,999.90
2019-06-07T16:29:30.033Z,999.90
2019-06-07T16:31:56.291Z,999.90
2019-06-07T16:34:22.401Z,999.90
2019-06-07T16:36:48.826Z,999.90
2019-06-07T16:39:15.145Z,999.90
2019-06-07T16:41:42.718Z,999.90
2019-06-07T16:44:09.025Z,999.90
2019-06-07T16:46:36.588Z,999.90
2019-06-07T16:49:02.996Z,999.90
2019-06-07T16:51:29.066Z,999.90
2019-06-07T16:53:55.163Z,999.90
2019-06-07T16:56:21.324Z,999.90
2019-06-07T16:58:48.683Z,999.90
2019-06-07T17:01:14.995Z,999.90
2019-06-07T17:03:41.490Z,999.90
2019-06-07T17:06:07.744Z,999.90
2019-06-07T17:08:33.808Z,999.90
2019-06-07T17:10:59.893Z,982.87
2019-06-07T17:13:33.320Z,953.50
2019-06-07T17:15:53.939Z,918.73
2019-06-07T17:18:20.006Z,894.77
2019-06-07T17:20:47.379Z,855.80
2019-06-07T17:23:13.593Z,812.80
2019-06-07T17:25:39.681Z,770.73
2019-06-07T17:28:05.759Z,736.40
2019-06-07T17:30:31.831Z,716.70
2019-06-07T17:32:59.621Z,699.10
2019-06-07T17:35:25.883Z,676.95
2019-06-07T17:37:51.943Z,665.23
2019-06-07T17:40:19.334Z,637.77
2019-06-07T17:42:45.400Z,638.17
2019-06-07T17:45:13.483Z,619.30
2019-06-07T17:47:39.546Z,621.48
2019-06-07T17:50:06.820Z,596.08
2019-06-07T17:52:32.899Z,599.85
2019-06-07T17:54:58.955Z,587.30
2019-06-07T17:57:25.045Z,582.02
2019-06-07T17:59:51.103Z,577.90
2019-06-07T18:02:17.171Z,566.12
2019-06-07T18:04:43.247Z,566.98
2019-06-07T18:07:10.011Z,552.62
2019-06-07T18:09:37.603Z,529.12
2019-06-07T18:12:03.755Z,558.65
2019-06-07T18:14:29.826Z,575.62
2019-06-07T18:16:55.895Z,537.52
2019-06-07T18:19:21.979Z,539.05
2019-06-07T18:21:49.782Z,524.65
2019-06-07T18:24:16.009Z,524.27
2019-06-07T18:26:42.083Z,517.10
2019-06-07T18:29:08.144Z,561.98
2019-06-07T18:31:34.222Z,524.25
2019-06-07T18:34:01.772Z,508.42
2019-06-07T18:36:27.851Z,504.65
2019-06-07T18:38:55.065Z,504.53
2019-06-07T18:41:21.283Z,501.30
2019-06-07T18:43:47.364Z,509.30
2019-06-07T18:46:13.532Z,496.00
2019-06-07T18:48:39.616Z,478.60
2019-06-07T18:51:05.783Z,483.77
2019-06-07T18:53:31.863Z,471.48
2019-06-07T18:55:58.150Z,466.70
2019-06-07T18:58:24.395Z,452.02
2019-06-07T19:00:51.409Z,454.27
2019-06-07T19:03:17.635Z,423.55
2019-06-07T19:05:43.728Z,447.87
2019-06-07T19:08:09.792Z,451.15
2019-06-07T19:10:35.867Z,383.35
2019-06-07T19:13:01.939Z,418.93
2019-06-07T19:15:28.403Z,417.72
2019-06-07T19:17:54.472Z,411.98
2019-06-07T19:20:20.831Z,404.62
2019-06-07T19:22:47.007Z,398.35
2019-06-07T19:25:13.762Z,375.90
2019-06-07T19:27:39.823Z,397.15
2019-06-07T19:30:06.686Z,388.68
2019-06-07T19:32:32.739Z,370.23
2019-06-07T19:34:59.433Z,397.50
2019-06-07T19:37:25.583Z,378.12
2019-06-07T19:39:51.769Z,370.00
2019-06-07T19:42:17.848Z,366.65
2019-06-07T19:44:53.067Z,351.75
2019-06-07T19:47:11.923Z,315.12
2019-06-07T19:49:37.984Z,327.87
2019-06-07T19:52:04.075Z,353.10
2019-06-07T19:54:30.139Z,358.65
2019-06-07T19:56:57.388Z,329.43
2019-06-07T19:59:23.596Z,357.83
2019-06-07T20:01:49.788Z,352.43
2019-06-07T20:04:15.940Z,347.85
2019-06-07T20:06:42.004Z,368.25
2019-06-07T20:09:08.084Z,378.00
2019-06-07T20:11:34.244Z,357.43
2019-06-07T20:14:00.772Z,393.23
2019-06-07T20:16:27.008Z,342.80
2019-06-07T20:18:53.091Z,400.90
2019-06-07T20:21:19.201Z,420.73
2019-06-07T20:23:45.327Z,347.02
2019-06-07T20:26:11.413Z,328.67
2019-06-07T20:28:37.476Z,393.35
2019-06-07T20:31:03.989Z,392.45
2019-06-07T20:33:30.227Z,362.48
2019-06-07T20:35:56.620Z,401.18
2019-06-07T20:38:23.705Z,385.63
2019-06-07T20:40:49.787Z,353.45
2019-06-07T20:43:15.868Z,356.52
2019-06-07T20:45:41.931Z,356.10
2019-06-07T20:48:08.482Z,357.92
2019-06-07T20:50:34.717Z,338.82
2019-06-07T20:53:01.360Z,337.95
2019-06-07T20:55:28.847Z,344.82
2019-06-07T20:57:54.926Z,329.95
2019-06-07T21:00:22.441Z,363.87
2019-06-07T21:02:48.754Z,339.15
2019-06-07T21:05:14.922Z,311.75
2019-06-07T21:07:41.008Z,304.43
2019-06-07T21:10:08.271Z,304.32
2019-06-07T21:12:34.647Z,288.15
2019-06-07T21:15:05.214Z,261.60
2019-06-07T21:17:28.702Z,260.90
2019-06-07T21:19:54.752Z,242.50
2019-06-07T21:22:20.853Z,251.80
2019-06-07T21:24:46.903Z,242.47
2019-06-07T21:27:12.979Z,215.60
2019-06-07T21:29:39.059Z,229.30
2019-06-07T21:32:05.460Z,223.65
2019-06-07T21:34:31.703Z,206.70
2019-06-07T21:36:57.753Z,206.68
2019-06-07T21:39:23.848Z,204.60
2019-06-07T21:41:49.913Z,188.18
2019-06-07T21:44:15.984Z,231.87
2019-06-07T21:46:42.048Z,186.37
2019-06-07T21:49:08.506Z,204.85
2019-06-07T21:51:34.695Z,195.97
2019-06-07T21:54:00.948Z,195.55
2019-06-07T21:56:27.039Z,191.15
2019-06-07T21:58:53.196Z,191.28
2019-06-07T22:01:20.475Z,192.80
2019-06-07T22:03:46.546Z,191.25
2019-06-07T22:06:13.749Z,180.60
2019-06-07T22:08:39.997Z,173.78
2019-06-07T22:11:06.192Z,189.55
2019-06-07T22:13:32.483Z,194.67
2019-06-07T22:15:58.541Z,184.52
2019-06-07T22:18:24.632Z,187.35
2019-06-07T22:20:50.707Z,189.85
2019-06-07T22:23:16.772Z,180.37
2019-06-07T22:25:42.849Z,186.95
2019-06-07T22:28:10.131Z,180.30
2019-06-07T22:30:36.350Z,175.03
2019-06-07T22:33:02.511Z,184.75
2019-06-07T22:35:28.570Z,171.18
2019-06-07T22:37:54.642Z,172.65
2019-06-07T22:40:20.719Z,173.90
2019-06-07T22:42:46.994Z,178.55
2019-06-07T22:45:14.594Z,178.10
2019-06-07T22:47:40.839Z,172.15
2019-06-07T22:50:10.617Z,189.13
2019-06-07T22:52:39.389Z,171.30
2019-06-07T22:55:07.691Z,184.45
2019-06-07T22:57:52.159Z,199.68
2019-06-07T23:00:20.744Z,172.40
2019-06-07T23:02:46.235Z,170.57
2019-06-07T23:05:12.751Z,175.93
2019-06-07T23:07:38.974Z,165.00
2019-06-07T23:10:05.381Z,181.67
2019-06-07T23:12:31.444Z,174.10
2019-06-07T23:14:57.531Z,169.22
2019-06-07T23:17:23.608Z,172.45
2019-06-07T23:19:49.678Z,172.20
2019-06-07T23:22:16.124Z,189.20
2019-06-07T23:24:42.311Z,174.75
2019-06-07T23:27:08.408Z,169.43
2019-06-07T23:29:34.563Z,173.95
2019-06-07T23:32:00.627Z,163.80
2019-06-07T23:34:26.721Z,163.35
2019-06-07T23:36:52.887Z,170.90
2019-06-07T23:39:21.959Z,178.53
2019-06-07T23:41:47.071Z,177.02
2019-06-07T23:44:13.378Z,264.60
2019-06-07T23:46:39.502Z,172.25
2019-06-07T23:49:05.566Z,169.43
2019-06-07T23:51:31.705Z,171.22
2019-06-07T23:53:58.033Z,155.22
2019-06-07T23:56:24.103Z,162.62
2019-06-07T23:58:50.183Z,164.88
